createdAt,value
2023-03-10T00:01:29.751Z,0.40
2023-03-10T00:04:00.975Z,0.75
2023-03-10T00:06:35.228Z,0.82
2023-03-10T00:09:05.627Z,0.73
2023-03-10T00:11:38.485Z,0.70
2023-03-10T00:14:08.762Z,0.47
2023-03-10T00:16:38.986Z,0.68
2023-03-10T00:19:09.264Z,0.85
2023-03-10T00:21:39.241Z,0.35
2023-03-10T00:24:09.546Z,0.95
2023-03-10T00:26:42.119Z,0.95
2023-03-10T00:29:14.154Z,0.45
2023-03-10T00:31:44.156Z,0.45
2023-03-10T00:34:14.675Z,0.90
2023-03-10T00:36:44.989Z,0.75
2023-03-10T00:39:15.265Z,0.45
2023-03-10T00:41:48.520Z,0.47
2023-03-10T00:44:19.235Z,1.17
2023-03-10T00:46:49.629Z,0.50
2023-03-10T00:49:19.724Z,0.75
2023-03-10T00:51:49.982Z,0.43
2023-03-10T00:54:21.986Z,0.50
2023-03-10T00:56:55.811Z,0.70
2023-03-10T00:59:26.110Z,0.60
2023-03-10T01:01:56.237Z,0.90
2023-03-10T01:04:26.301Z,0.75
2023-03-10T01:06:56.286Z,0.40
2023-03-10T01:09:26.539Z,0.60
2023-03-10T01:11:59.387Z,0.30
2023-03-10T01:14:29.701Z,0.60
2023-03-10T01:17:00.008Z,0.43
2023-03-10T01:19:30.031Z,0.70
2023-03-10T01:22:00.022Z,0.50
2023-03-10T01:24:29.985Z,0.45
2023-03-10T01:27:02.529Z,0.50
2023-03-10T01:29:32.544Z,0.52
2023-03-10T01:32:02.590Z,1.05
2023-03-10T01:34:34.045Z,0.70
2023-03-10T01:37:04.005Z,0.52
2023-03-10T01:39:33.916Z,0.50
2023-03-10T01:42:07.364Z,0.60
2023-03-10T01:44:39.311Z,0.63
2023-03-10T01:47:09.571Z,0.63
2023-03-10T01:49:42.554Z,0.47
2023-03-10T01:52:16.285Z,0.30
2023-03-10T01:54:52.178Z,0.35
2023-03-10T01:57:29.107Z,0.40
2023-03-10T02:00:00.924Z,0.60
2023-03-10T02:02:37.576Z,0.45
2023-03-10T02:05:09.054Z,0.90
2023-03-10T02:07:41.271Z,0.40
2023-03-10T02:10:13.761Z,0.60
2023-03-10T02:12:46.467Z,0.30
2023-03-10T02:15:16.973Z,0.40
2023-03-10T02:17:48.043Z,0.68
2023-03-10T02:20:29.033Z,0.50
2023-03-10T02:23:01.226Z,0.43
2023-03-10T02:25:40.834Z,0.50
2023-03-10T02:28:13.928Z,0.35
2023-03-10T02:30:46.657Z,0.68
2023-03-10T02:33:20.779Z,0.85
2023-03-10T02:35:51.153Z,1.00
2023-03-10T02:38:25.113Z,0.65
2023-03-10T02:40:55.871Z,0.70
2023-03-10T02:43:34.229Z,0.52
2023-03-10T02:46:12.508Z,0.52
2023-03-10T02:48:45.790Z,0.73
2023-03-10T02:51:26.193Z,0.43
2023-03-10T02:53:57.621Z,0.68
2023-03-10T02:56:29.227Z,0.80
2023-03-10T02:59:04.470Z,0.88
2023-03-10T03:04:06.757Z,0.80
2023-03-10T03:06:37.025Z,0.25
2023-03-10T03:09:07.923Z,0.77
2023-03-10T03:11:38.762Z,0.40
2023-03-10T03:14:14.440Z,0.52
2023-03-10T03:16:45.002Z,0.95
2023-03-10T03:19:16.213Z,0.55
2023-03-10T03:21:50.214Z,0.77
2023-03-10T03:24:21.571Z,0.63
2023-03-10T03:26:52.374Z,0.65
2023-03-10T03:29:29.479Z,0.55
2023-03-10T03:31:59.512Z,1.00
2023-03-10T03:34:33.481Z,0.73
2023-03-10T03:37:06.417Z,0.57
2023-03-10T03:39:40.470Z,0.43
2023-03-10T03:42:11.796Z,0.85
2023-03-10T03:44:50.716Z,0.60
2023-03-10T03:47:21.340Z,1.23
2023-03-10T03:49:51.562Z,1.00
2023-03-10T03:52:21.500Z,0.70
2023-03-10T03:54:51.777Z,0.82
2023-03-10T03:57:21.869Z,1.00
2023-03-10T03:59:54.894Z,0.63
2023-03-10T04:02:25.215Z,0.85
2023-03-10T04:04:57.024Z,0.60
2023-03-10T04:07:27.325Z,1.00
2023-03-10T04:09:57.840Z,1.50
2023-03-10T04:12:29.672Z,0.60
2023-03-10T04:15:04.075Z,0.73
2023-03-10T04:17:34.050Z,1.00
2023-03-10T04:20:07.358Z,0.93
2023-03-10T04:22:41.150Z,0.43
2023-03-10T04:25:13.098Z,0.90
2023-03-10T04:27:44.281Z,1.17
2023-03-10T04:30:18.249Z,1.60
2023-03-10T04:32:51.863Z,0.68
2023-03-10T04:35:24.974Z,1.10
2023-03-10T04:37:55.605Z,1.02
2023-03-10T04:40:27.714Z,0.60
2023-03-10T04:42:58.089Z,0.93
2023-03-10T04:45:30.871Z,0.95
2023-03-10T04:48:01.433Z,0.95
2023-03-10T04:50:31.865Z,0.88
2023-03-10T04:53:02.013Z,0.85
2023-03-10T04:55:34.230Z,0.47
2023-03-10T04:58:06.306Z,0.80
2023-03-10T05:00:43.085Z,1.15
2023-03-10T05:03:18.131Z,0.98
2023-03-10T05:05:48.140Z,1.08
2023-03-10T05:08:18.362Z,1.23
2023-03-10T05:10:49.661Z,1.02
2023-03-10T05:13:21.099Z,0.60
2023-03-10T05:15:54.233Z,0.77
2023-03-10T05:18:24.386Z,0.47
2023-03-10T05:20:56.695Z,0.73
2023-03-10T05:23:28.171Z,1.15
2023-03-10T05:25:58.429Z,0.52
2023-03-10T05:28:30.094Z,0.65
2023-03-10T05:31:03.227Z,0.68
2023-03-10T05:33:33.404Z,0.70
2023-03-10T05:36:08.164Z,0.63
2023-03-10T05:38:39.497Z,1.10
2023-03-10T05:41:12.796Z,0.45
2023-03-10T05:43:43.755Z,0.80
2023-03-10T05:46:18.930Z,0.57
2023-03-10T05:48:54.814Z,0.70
2023-03-10T05:51:24.932Z,0.80
2023-03-10T05:53:55.004Z,0.55
2023-03-10T05:56:29.634Z,0.50
2023-03-10T05:59:03.170Z,0.85
2023-03-10T06:01:39.355Z,0.93
2023-03-10T06:04:09.752Z,0.75
2023-03-10T06:06:40.020Z,0.85
2023-03-10T06:09:10.216Z,0.80
2023-03-10T06:11:40.148Z,0.60
2023-03-10T06:14:10.093Z,1.13
2023-03-10T06:16:42.829Z,0.45
2023-03-10T06:19:13.627Z,0.77
2023-03-10T06:21:43.632Z,0.50
2023-03-10T06:24:13.693Z,0.50
2023-03-10T06:26:44.024Z,0.68
2023-03-10T06:29:14.792Z,0.50
2023-03-10T06:31:47.436Z,0.60
2023-03-10T06:34:17.791Z,0.40
2023-03-10T06:36:48.018Z,0.30
2023-03-10T06:39:17.958Z,0.60
2023-03-10T06:41:47.926Z,0.40
2023-03-10T06:44:19.097Z,0.70
2023-03-10T06:46:51.927Z,0.30
2023-03-10T06:49:21.970Z,0.50
2023-03-10T06:51:52.178Z,0.38
2023-03-10T06:54:23.037Z,0.73
2023-03-10T06:56:53.463Z,0.38
2023-03-10T06:59:23.497Z,0.43
2023-03-10T07:01:56.046Z,0.50
2023-03-10T07:04:26.042Z,0.40
2023-03-10T07:06:56.004Z,0.63
2023-03-10T07:09:26.246Z,0.40
2023-03-10T07:11:56.296Z,0.75
2023-03-10T07:14:26.216Z,0.60
2023-03-10T07:16:58.953Z,0.20
2023-03-10T07:19:29.025Z,0.43
2023-03-10T07:21:59.267Z,0.22
2023-03-10T07:24:29.551Z,0.30
2023-03-10T07:27:02.053Z,0.40
2023-03-10T07:29:32.356Z,1.05
2023-03-10T07:32:05.131Z,0.60
2023-03-10T07:34:35.269Z,0.30
2023-03-10T07:37:05.537Z,0.43
2023-03-10T07:39:35.710Z,0.20
2023-03-10T07:42:05.938Z,0.40
2023-03-10T07:44:37.367Z,0.20
2023-03-10T07:49:30.009Z,0.15
2023-03-10T07:51:59.966Z,0.38
2023-03-10T07:54:29.970Z,0.32
2023-03-10T07:56:59.965Z,0.30
2023-03-10T07:59:30.195Z,0.30
2023-03-10T08:02:00.209Z,0.45
2023-03-10T08:04:33.095Z,0.10
2023-03-10T08:07:04.018Z,0.20
2023-03-10T08:09:34.250Z,0.20
2023-03-10T08:12:04.863Z,0.30
2023-03-10T08:14:35.761Z,0.50
2023-03-10T08:17:05.713Z,0.25
2023-03-10T08:19:40.315Z,0.20
2023-03-10T08:22:10.993Z,0.10
2023-03-10T08:24:41.714Z,0.20
2023-03-10T08:27:11.677Z,1.25
2023-03-10T08:29:41.569Z,0.20
2023-03-10T08:32:11.552Z,0.50
2023-03-10T08:34:44.388Z,0.38
2023-03-10T08:37:14.483Z,0.20
2023-03-10T08:39:44.589Z,0.38
2023-03-10T08:42:15.722Z,0.30
2023-03-10T08:44:45.811Z,0.40
2023-03-10T08:47:15.986Z,0.45
2023-03-10T08:49:49.042Z,0.60
2023-03-10T08:52:19.336Z,0.20
2023-03-10T08:54:49.312Z,0.28
2023-03-10T08:57:19.499Z,0.20
2023-03-10T08:59:51.560Z,0.22
2023-03-10T09:02:22.202Z,0.20
2023-03-10T09:04:54.875Z,0.38
2023-03-10T09:07:24.781Z,0.30
2023-03-10T09:09:55.060Z,0.32
2023-03-10T09:12:28.498Z,0.80
2023-03-10T09:15:01.747Z,0.73
2023-03-10T09:17:31.980Z,0.73
2023-03-10T09:20:06.440Z,0.28
2023-03-10T09:22:36.801Z,1.00
2023-03-10T09:25:07.244Z,1.15
2023-03-10T09:27:37.168Z,0.75
2023-03-10T09:30:07.847Z,1.08
2023-03-10T09:32:37.825Z,1.00
2023-03-10T09:35:11.032Z,0.47
2023-03-10T09:37:41.078Z,0.20
2023-03-10T09:40:16.344Z,0.22
2023-03-10T09:42:47.725Z,0.50
2023-03-10T09:45:28.339Z,0.00
2023-03-10T09:48:13.085Z,0.40
2023-03-10T09:50:47.806Z,0.45
2023-03-10T09:53:26.644Z,0.88
2023-03-10T09:55:56.911Z,0.43
2023-03-10T09:58:35.126Z,0.10
2023-03-10T10:01:08.153Z,0.00
2023-03-10T10:03:52.711Z,0.55
2023-03-10T10:06:30.034Z,0.10
2023-03-10T10:09:05.033Z,0.30
2023-03-10T10:11:36.997Z,0.20
2023-03-10T10:14:29.321Z,0.17
2023-03-10T10:17:08.186Z,0.30
2023-03-10T10:19:41.164Z,0.20
2023-03-10T10:22:22.475Z,0.20
2023-03-10T10:25:06.421Z,0.80
2023-03-10T10:27:38.467Z,0.10
2023-03-10T10:30:34.511Z,0.30
2023-03-10T10:33:05.873Z,0.00
2023-03-10T10:35:39.289Z,0.10
2023-03-10T10:38:25.908Z,0.20
2023-03-10T10:41:06.685Z,0.22
2023-03-10T10:43:44.796Z,0.08
2023-03-10T10:46:17.769Z,4.07
2023-03-10T10:48:51.593Z,1.08
2023-03-10T10:51:24.606Z,0.10
2023-03-10T10:53:57.540Z,0.10
2023-03-10T10:56:28.706Z,0.10
2023-03-10T10:59:08.237Z,0.20
2023-03-10T11:01:53.691Z,0.00
2023-03-10T11:04:24.188Z,0.13
2023-03-10T11:06:55.486Z,0.10
2023-03-10T11:09:28.008Z,0.10
2023-03-10T11:12:05.799Z,0.00
2023-03-10T11:14:44.698Z,0.20
2023-03-10T11:17:21.696Z,0.30
2023-03-10T11:20:16.258Z,0.15
2023-03-10T11:22:49.692Z,0.43
2023-03-10T11:25:32.223Z,0.40
2023-03-10T11:28:17.205Z,0.22
2023-03-10T11:30:51.949Z,0.20
2023-03-10T11:33:29.700Z,0.70
2023-03-10T11:36:06.745Z,0.40
2023-03-10T11:38:40.928Z,0.47
2023-03-10T11:41:16.196Z,0.70
2023-03-10T11:43:57.374Z,1.10
2023-03-10T11:46:33.850Z,0.57
2023-03-10T11:49:09.876Z,0.90
2023-03-10T11:51:45.141Z,0.20
2023-03-10T11:54:19.796Z,0.10
2023-03-10T11:56:53.697Z,0.20
2023-03-10T11:59:26.569Z,0.30
2023-03-10T12:02:00.992Z,0.43
2023-03-10T12:04:35.797Z,0.40
2023-03-10T12:09:43.873Z,0.30
2023-03-10T12:12:25.097Z,0.40
2023-03-10T12:14:57.707Z,0.40
2023-03-10T12:17:27.756Z,0.20
2023-03-10T12:20:25.530Z,0.30
2023-03-10T12:22:56.666Z,0.30
2023-03-10T12:25:45.586Z,0.10
2023-03-10T12:28:29.147Z,0.10
2023-03-10T12:31:02.115Z,0.20
2023-03-10T12:34:03.424Z,0.28
2023-03-10T12:36:41.566Z,0.20
2023-03-10T12:39:38.061Z,0.08
2023-03-10T12:42:28.542Z,0.20
2023-03-10T12:45:28.669Z,0.20
2023-03-10T12:48:04.338Z,0.20
2023-03-10T12:50:43.707Z,0.10
2023-03-10T12:53:32.180Z,0.10
2023-03-10T12:56:36.784Z,0.10
2023-03-10T12:59:18.139Z,0.10
2023-03-10T13:01:56.302Z,0.10
2023-03-10T13:04:29.480Z,0.00
2023-03-10T13:07:04.315Z,0.17
2023-03-10T13:09:38.479Z,0.30
2023-03-10T13:12:14.459Z,0.08
2023-03-10T13:14:46.410Z,0.20
2023-03-10T13:17:29.309Z,0.10
2023-03-10T13:20:02.167Z,0.63
2023-03-10T13:22:32.446Z,0.10
2023-03-10T13:25:04.887Z,0.00
2023-03-10T13:27:37.218Z,0.00
2023-03-10T13:30:16.436Z,0.00
2023-03-10T13:32:55.107Z,0.17
2023-03-10T13:35:26.712Z,0.17
2023-03-10T13:38:20.733Z,0.20
2023-03-10T13:40:52.246Z,0.10
2023-03-10T13:43:30.165Z,0.00
2023-03-10T13:46:00.806Z,0.10
2023-03-10T13:48:35.222Z,0.00
2023-03-10T13:53:35.460Z,0.10
2023-03-10T13:56:19.804Z,0.00
2023-03-10T13:58:51.539Z,0.00
2023-03-10T14:01:23.814Z,0.20
2023-03-10T14:04:05.888Z,0.10
2023-03-10T14:06:36.212Z,0.28
2023-03-10T14:09:16.120Z,0.20
2023-03-10T14:11:47.967Z,0.00
2023-03-10T14:14:30.586Z,0.03
2023-03-10T14:17:02.144Z,0.20
2023-03-10T14:19:51.583Z,0.10
2023-03-10T14:22:38.304Z,0.00
2023-03-10T14:25:16.235Z,0.00
2023-03-10T14:27:48.061Z,0.00
2023-03-10T14:30:25.253Z,0.10
2023-03-10T14:32:55.779Z,0.10
2023-03-10T14:35:29.559Z,0.00
2023-03-10T14:37:59.530Z,0.10
2023-03-10T14:40:29.813Z,0.00
2023-03-10T14:43:02.537Z,0.20
2023-03-10T14:45:34.301Z,0.10
2023-03-10T14:48:05.853Z,0.32
2023-03-10T14:50:38.598Z,0.10
2023-03-10T14:53:12.363Z,0.10
2023-03-10T14:55:42.636Z,0.28
2023-03-10T14:58:18.520Z,0.20
2023-03-10T15:00:48.837Z,0.05
2023-03-10T15:03:19.065Z,0.10
2023-03-10T15:05:51.719Z,0.10
2023-03-10T15:08:22.024Z,0.00
2023-03-10T15:10:53.288Z,0.10
2023-03-10T15:13:24.951Z,0.08
2023-03-10T15:15:55.228Z,0.20
2023-03-10T15:18:27.190Z,0.00
2023-03-10T15:21:01.434Z,0.10
2023-03-10T15:23:32.312Z,0.10
2023-03-10T15:26:09.509Z,0.30
2023-03-10T15:28:39.751Z,0.10
2023-03-10T15:31:10.102Z,0.00
2023-03-10T15:33:40.094Z,0.00
2023-03-10T15:36:13.281Z,0.00
2023-03-10T15:38:43.313Z,0.20
2023-03-10T15:41:13.611Z,0.08
2023-03-10T15:43:43.789Z,0.13
2023-03-10T15:46:15.010Z,0.00
2023-03-10T15:48:45.297Z,0.10
2023-03-10T15:51:20.964Z,0.20
2023-03-10T15:53:51.180Z,0.00
2023-03-10T15:56:21.442Z,0.10
2023-03-10T15:58:51.570Z,0.00
2023-03-10T16:01:22.466Z,0.10
2023-03-10T16:03:52.694Z,0.38
2023-03-10T16:06:27.504Z,0.20
2023-03-10T16:08:58.130Z,0.20
2023-03-10T16:11:28.449Z,0.10
2023-03-10T16:13:58.636Z,0.10
2023-03-10T16:16:28.977Z,0.20
2023-03-10T16:18:59.229Z,0.20
2023-03-10T16:21:32.236Z,0.10
2023-03-10T16:24:02.455Z,0.10
2023-03-10T16:26:32.676Z,0.30
2023-03-10T16:29:02.692Z,0.10
2023-03-10T16:31:32.650Z,0.00
2023-03-10T16:34:02.657Z,0.22
2023-03-10T16:36:36.844Z,0.20
2023-03-10T16:41:40.029Z,0.05
2023-03-10T16:44:13.143Z,0.30
2023-03-10T16:46:43.317Z,0.20
2023-03-10T16:49:17.838Z,0.20
2023-03-10T16:51:51.013Z,0.30
2023-03-10T16:54:23.192Z,0.20
2023-03-10T16:56:57.128Z,0.10
2023-03-10T16:59:28.015Z,0.20
2023-03-10T17:01:58.190Z,0.20
2023-03-10T17:04:28.249Z,0.20
2023-03-10T17:07:01.083Z,0.20
2023-03-10T17:09:31.029Z,0.10
2023-03-10T17:12:02.758Z,0.25
2023-03-10T17:14:32.713Z,0.10
2023-03-10T17:17:03.375Z,0.10
2023-03-10T17:19:34.496Z,0.22
2023-03-10T17:22:07.056Z,0.10
2023-03-10T17:24:36.971Z,0.10
2023-03-10T17:27:07.441Z,0.20
2023-03-10T17:29:37.902Z,0.63
2023-03-10T17:32:08.477Z,0.47
2023-03-10T17:34:38.443Z,0.50
2023-03-10T17:37:11.119Z,0.38
2023-03-10T17:39:47.715Z,0.30
2023-03-10T17:42:21.494Z,0.30
2023-03-10T17:44:51.682Z,0.40
2023-03-10T17:47:21.988Z,0.35
2023-03-10T17:49:52.425Z,0.25
2023-03-10T17:52:25.933Z,0.28
2023-03-10T17:54:56.893Z,0.60
2023-03-10T17:57:27.188Z,0.30
2023-03-10T17:59:58.233Z,0.55
2023-03-10T18:02:30.803Z,0.63
2023-03-10T18:05:01.062Z,0.40
2023-03-10T18:07:34.315Z,0.68
2023-03-10T18:10:05.152Z,0.45
2023-03-10T18:12:35.373Z,0.60
2023-03-10T18:15:05.705Z,0.30
2023-03-10T18:17:35.731Z,0.38
2023-03-10T18:20:06.574Z,0.68
2023-03-10T18:22:39.119Z,0.68
2023-03-10T18:25:09.794Z,0.50
2023-03-10T18:27:40.108Z,0.50
2023-03-10T18:30:11.281Z,0.40
2023-03-10T18:32:42.168Z,0.60
2023-03-10T18:35:13.556Z,0.63
2023-03-10T18:37:46.431Z,0.65
2023-03-10T18:40:19.006Z,0.40
2023-03-10T18:42:49.358Z,0.82
2023-03-10T18:45:19.280Z,0.70
2023-03-10T18:47:49.525Z,0.68
2023-03-10T18:50:19.954Z,0.98
2023-03-10T18:52:52.745Z,0.93
2023-03-10T18:55:22.924Z,1.25
2023-03-10T18:57:53.238Z,0.60
2023-03-10T19:00:24.029Z,0.60
2023-03-10T19:02:55.742Z,0.90
2023-03-10T19:05:26.253Z,0.70
2023-03-10T19:07:59.064Z,0.52
2023-03-10T19:10:29.321Z,1.00
2023-03-10T19:12:59.826Z,0.85
2023-03-10T19:15:29.836Z,0.88
2023-03-10T19:18:00.017Z,0.52
2023-03-10T19:20:29.949Z,0.47
2023-03-10T19:23:02.455Z,0.90
2023-03-10T19:25:32.378Z,0.70
2023-03-10T19:28:02.334Z,0.57
2023-03-10T19:30:32.699Z,0.45
2023-03-10T19:33:02.976Z,0.85
2023-03-10T19:35:33.223Z,0.35
2023-03-10T19:38:06.118Z,0.52
2023-03-10T19:40:36.640Z,0.80
2023-03-10T19:43:06.919Z,0.38
2023-03-10T19:45:37.457Z,0.90
2023-03-10T19:48:07.740Z,0.77
2023-03-10T19:50:37.914Z,0.82
2023-03-10T19:53:10.449Z,0.40
2023-03-10T19:55:40.887Z,1.00
2023-03-10T19:58:11.446Z,1.20
2023-03-10T20:00:41.772Z,0.80
2023-03-10T20:03:12.709Z,1.60
2023-03-10T20:05:43.092Z,1.23
2023-03-10T20:08:15.812Z,1.40
2023-03-10T20:10:46.126Z,1.80
2023-03-10T20:13:16.393Z,1.27
2023-03-10T20:15:46.631Z,1.40
2023-03-10T20:18:18.478Z,2.78
2023-03-10T20:20:48.713Z,2.72
2023-03-10T20:23:21.281Z,1.10
2023-03-10T20:25:51.555Z,1.10
2023-03-10T20:28:21.816Z,1.13
2023-03-10T20:30:52.461Z,0.95
2023-03-10T20:33:22.906Z,1.35
2023-03-10T20:35:53.224Z,1.10
2023-03-10T20:38:25.881Z,1.00
2023-03-10T20:40:56.084Z,0.73
2023-03-10T20:43:26.985Z,0.88
2023-03-10T20:45:57.232Z,1.00
2023-03-10T20:48:27.466Z,0.90
2023-03-10T20:50:58.638Z,1.42
2023-03-10T20:53:33.127Z,0.77
2023-03-10T20:56:03.737Z,0.70
2023-03-10T20:58:33.959Z,0.93
2023-03-10T21:01:04.307Z,0.73
2023-03-10T21:03:34.809Z,1.27
2023-03-10T21:06:05.065Z,1.08
2023-03-10T21:08:37.663Z,1.00
2023-03-10T21:11:08.055Z,0.70
2023-03-10T21:13:38.316Z,0.90
2023-03-10T21:16:09.667Z,0.57
2023-03-10T21:18:40.284Z,0.90
2023-03-10T21:21:13.723Z,1.00
2023-03-10T21:23:47.132Z,1.23
2023-03-10T21:26:18.998Z,1.10
2023-03-10T21:28:49.484Z,0.93
2023-03-10T21:31:19.993Z,1.13
2023-03-10T21:33:50.267Z,1.70
2023-03-10T21:36:23.163Z,0.93
2023-03-10T21:38:56.668Z,0.80
2023-03-10T21:41:28.866Z,1.70
2023-03-10T21:43:59.482Z,1.70
2023-03-10T21:46:29.926Z,1.50
2023-03-10T21:49:00.446Z,1.15
2023-03-10T21:51:33.896Z,1.40
2023-03-10T21:54:08.032Z,1.63
2023-03-10T21:56:38.338Z,1.58
2023-03-10T21:59:08.893Z,1.50
2023-03-10T22:01:39.212Z,1.53
2023-03-10T22:04:09.608Z,1.75
2023-03-10T22:06:39.862Z,2.00
2023-03-10T22:09:12.541Z,1.77
2023-03-10T22:11:42.777Z,1.43
2023-03-10T22:14:13.671Z,1.80
2023-03-10T22:16:43.982Z,1.50
2023-03-10T22:19:14.216Z,1.73
2023-03-10T22:21:44.483Z,1.67
2023-03-10T22:24:17.021Z,1.77
2023-03-10T22:26:47.212Z,1.10
2023-03-10T22:29:17.514Z,2.23
2023-03-10T22:31:47.860Z,2.03
2023-03-10T22:34:18.074Z,1.43
2023-03-10T22:36:48.254Z,2.07
2023-03-10T22:39:21.482Z,2.00
2023-03-10T22:41:51.808Z,1.83
2023-03-10T22:44:22.904Z,1.50
2023-03-10T22:46:53.393Z,2.07
2023-03-10T22:49:23.630Z,1.47
2023-03-10T22:51:53.820Z,0.97
2023-03-10T22:54:26.462Z,1.23
2023-03-10T22:56:56.760Z,1.30
2023-03-10T22:59:26.990Z,1.30
2023-03-10T23:01:57.296Z,1.47
2023-03-10T23:04:27.596Z,1.10
2023-03-10T23:06:57.841Z,1.17
2023-03-10T23:09:30.503Z,1.30
2023-03-10T23:12:00.814Z,1.13
2023-03-10T23:14:31.027Z,1.03
2023-03-10T23:17:01.207Z,1.33
2023-03-10T23:19:31.461Z,1.53
2023-03-10T23:22:01.623Z,1.60
2023-03-10T23:24:34.104Z,1.27
2023-03-10T23:27:04.314Z,1.20
2023-03-10T23:29:34.566Z,1.00
2023-03-10T23:32:05.163Z,1.03
2023-03-10T23:34:35.408Z,1.10
2023-03-10T23:37:05.586Z,0.87
2023-03-10T23:39:38.214Z,1.13
2023-03-10T23:42:09.681Z,1.40
2023-03-10T23:44:39.901Z,0.90
2023-03-10T23:47:10.216Z,1.03
2023-03-10T23:49:40.400Z,1.33
2023-03-10T23:52:10.645Z,1.07
2023-03-10T23:54:43.215Z,1.00
2023-03-10T23:57:13.465Z,0.80
2023-03-10T23:59:44.245Z,1.20
